createdAt,value
2022-08-11T00:07:07.179Z,59.03
2022-08-11T00:37:09.857Z,60.24
2022-08-11T01:07:13.917Z,61.23
2022-08-11T01:37:16.584Z,61.66
2022-08-11T02:07:20.879Z,63.12
2022-08-11T02:37:23.873Z,64.70
2022-08-11T03:07:28.975Z,65.72
2022-08-11T03:37:32.477Z,67.09
2022-08-11T04:07:37.333Z,68.48
2022-08-11T04:37:40.015Z,69.23
2022-08-11T05:07:43.986Z,70.00
2022-08-11T05:37:46.675Z,71.06
2022-08-11T06:07:51.140Z,70.84
2022-08-11T06:37:58.840Z,68.65
2022-08-11T07:08:34.694Z,64.22
2022-08-11T07:38:27.498Z,60.61
2022-08-11T08:08:31.576Z,56.25
2022-08-11T08:38:34.261Z,52.33
2022-08-11T09:08:39.125Z,48.45
2022-08-11T09:38:46.116Z,45.24
2022-08-11T10:08:51.947Z,43.46
2022-08-11T10:38:54.940Z,41.69
2022-08-11T11:09:03.703Z,38.83
2022-08-11T11:39:07.964Z,36.07
2022-08-11T12:09:11.203Z,33.65
2022-08-11T12:39:23.129Z,31.77
2022-08-11T13:09:27.650Z,30.82
2022-08-11T13:39:30.546Z,28.98
2022-08-11T14:09:34.132Z,29.08
2022-08-11T14:39:36.838Z,28.58
2022-08-11T15:10:02.477Z,28.13
2022-08-11T15:40:03.248Z,30.12
2022-08-11T16:10:06.822Z,28.24
2022-08-11T16:40:13.130Z,30.14
2022-08-11T17:10:39.694Z,30.45
2022-08-11T17:40:39.448Z,31.60
2022-08-11T18:10:42.742Z,33.54
2022-08-11T18:40:45.563Z,36.21
2022-08-11T19:10:50.087Z,39.01
2022-08-11T19:40:52.862Z,42.64
2022-08-11T20:10:56.550Z,44.79
2022-08-11T20:40:59.615Z,45.02
2022-08-11T21:11:02.661Z,46.76
2022-08-11T21:41:09.228Z,49.21
2022-08-11T22:11:12.112Z,51.76
2022-08-11T22:41:15.442Z,53.52
2022-08-11T23:11:18.826Z,54.59
2022-08-11T23:41:21.525Z,56.04
